createdAt,value
2018-12-31T00:01:28.935Z,99.90
2018-12-31T00:04:00.853Z,99.90
2018-12-31T00:06:31.737Z,99.90
2018-12-31T00:09:02.264Z,99.90
2018-12-31T00:11:35.408Z,99.90
2018-12-31T00:14:06.162Z,99.90
2018-12-31T00:16:36.372Z,99.90
2018-12-31T00:19:07.953Z,99.90
2018-12-31T00:21:39.311Z,99.90
2018-12-31T00:24:11.145Z,99.90
2018-12-31T00:26:43.188Z,99.90
2018-12-31T00:29:14.365Z,99.90
2018-12-31T00:31:44.897Z,99.90
2018-12-31T00:34:16.586Z,99.90
2018-12-31T00:36:47.182Z,99.90
2018-12-31T00:39:18.754Z,99.90
2018-12-31T00:41:49.907Z,99.90
2018-12-31T00:44:20.511Z,99.90
2018-12-31T00:46:53.546Z,99.90
2018-12-31T00:49:24.476Z,99.90
2018-12-31T00:51:56.461Z,99.90
2018-12-31T00:54:27.398Z,99.90
2018-12-31T00:56:58.930Z,99.90
2018-12-31T00:59:30.013Z,99.90
2018-12-31T01:02:00.648Z,99.90
2018-12-31T01:04:31.494Z,99.90
2018-12-31T01:07:04.475Z,99.90
2018-12-31T01:09:36.510Z,99.90
2018-12-31T01:12:09.489Z,99.90
2018-12-31T01:14:40.272Z,99.90
2018-12-31T01:17:12.748Z,99.90
2018-12-31T01:19:45.223Z,99.90
2018-12-31T01:22:16.561Z,99.90
2018-12-31T01:24:47.822Z,99.90
2018-12-31T01:27:19.879Z,99.90
2018-12-31T01:29:51.114Z,99.90
2018-12-31T01:32:23.139Z,99.90
2018-12-31T01:34:54.876Z,99.90
2018-12-31T01:37:25.780Z,99.90
2018-12-31T01:39:56.600Z,99.90
2018-12-31T01:42:27.817Z,99.90
2018-12-31T01:44:59.653Z,99.90
2018-12-31T01:47:31.479Z,99.90
2018-12-31T01:50:02.802Z,99.90
2018-12-31T01:52:34.250Z,99.90
2018-12-31T01:55:04.860Z,99.90
2018-12-31T01:57:37.831Z,99.90
2018-12-31T02:00:09.986Z,99.90
2018-12-31T02:02:42.115Z,99.90
2018-12-31T02:05:14.665Z,99.90
2018-12-31T02:07:50.455Z,99.90
2018-12-31T02:10:21.073Z,99.90
2018-12-31T02:12:51.549Z,99.90
2018-12-31T02:15:24.029Z,99.90
2018-12-31T02:17:54.760Z,99.90
2018-12-31T02:20:25.958Z,99.90
2018-12-31T02:22:58.306Z,99.90
2018-12-31T02:25:29.547Z,99.90
2018-12-31T02:28:01.509Z,99.90
2018-12-31T02:30:32.245Z,99.90
2018-12-31T02:33:03.826Z,99.90
2018-12-31T02:35:35.192Z,99.90
2018-12-31T02:38:07.288Z,99.90
2018-12-31T02:40:38.490Z,99.90
2018-12-31T02:43:09.637Z,99.90
2018-12-31T02:45:41.371Z,99.90
2018-12-31T02:48:12.955Z,99.90
2018-12-31T02:50:43.773Z,99.90
2018-12-31T02:53:15.245Z,99.90
2018-12-31T02:55:45.980Z,99.90
2018-12-31T02:58:17.388Z,99.90
2018-12-31T03:00:51.495Z,99.90
2018-12-31T03:03:22.846Z,99.90
2018-12-31T03:05:53.827Z,99.90
2018-12-31T03:08:26.442Z,99.90
2018-12-31T03:10:57.910Z,99.90
2018-12-31T03:13:29.199Z,99.90
2018-12-31T03:16:01.922Z,99.90
2018-12-31T03:18:32.783Z,99.90
2018-12-31T03:21:05.588Z,99.90
2018-12-31T03:23:36.158Z,99.90
2018-12-31T03:26:07.283Z,99.90
2018-12-31T03:28:38.421Z,99.90
2018-12-31T03:31:10.103Z,99.90
2018-12-31T03:33:42.622Z,99.90
2018-12-31T03:36:15.246Z,99.90
2018-12-31T03:38:47.678Z,99.90
2018-12-31T03:41:19.570Z,99.90
2018-12-31T03:43:50.585Z,99.90
2018-12-31T03:46:21.783Z,99.90
2018-12-31T03:48:55.879Z,99.90
2018-12-31T03:51:28.591Z,99.90
2018-12-31T03:53:59.868Z,99.90
2018-12-31T03:56:34.860Z,99.90
2018-12-31T03:59:08.206Z,99.90
2018-12-31T04:01:39.261Z,99.90
2018-12-31T04:04:13.423Z,99.90
2018-12-31T04:06:50.557Z,99.90
2018-12-31T04:09:35.114Z,99.90
2018-12-31T04:12:07.564Z,99.90
2018-12-31T04:14:40.611Z,99.90
2018-12-31T04:17:13.817Z,99.90
2018-12-31T04:19:47.595Z,99.90
2018-12-31T04:22:18.524Z,99.90
2018-12-31T04:24:53.003Z,99.90
2018-12-31T04:27:25.968Z,99.90
2018-12-31T04:29:58.057Z,99.90
2018-12-31T04:32:29.667Z,99.90
2018-12-31T04:35:00.176Z,99.90
2018-12-31T04:37:32.236Z,99.90
2018-12-31T04:40:02.862Z,99.90
2018-12-31T04:42:36.243Z,99.90
2018-12-31T04:45:06.713Z,99.90
2018-12-31T04:47:37.950Z,99.90
2018-12-31T04:50:10.418Z,99.90
2018-12-31T04:52:43.588Z,99.90
2018-12-31T04:55:16.309Z,99.90
2018-12-31T04:57:49.271Z,99.90
2018-12-31T05:00:21.276Z,99.90
2018-12-31T05:02:54.131Z,99.90
2018-12-31T05:05:27.276Z,99.90
2018-12-31T05:07:57.839Z,99.90
2018-12-31T05:10:31.485Z,99.90
2018-12-31T05:13:03.840Z,99.90
2018-12-31T05:15:34.470Z,99.90
2018-12-31T05:18:05.781Z,99.90
2018-12-31T05:20:36.887Z,99.90
2018-12-31T05:23:09.522Z,99.90
2018-12-31T05:25:40.367Z,99.60
2018-12-31T05:28:12.712Z,99.70
2018-12-31T05:30:44.573Z,99.30
2018-12-31T05:33:16.007Z,99.00
2018-12-31T05:35:48.115Z,98.90
2018-12-31T05:38:19.602Z,98.80
2018-12-31T05:40:50.774Z,98.70
2018-12-31T05:43:22.028Z,98.50
2018-12-31T05:45:53.322Z,98.20
2018-12-31T05:48:24.154Z,98.40
2018-12-31T05:50:55.673Z,97.80
2018-12-31T05:53:27.006Z,97.50
2018-12-31T05:55:58.163Z,97.80
2018-12-31T05:58:29.395Z,97.90
2018-12-31T06:01:01.418Z,98.00
2018-12-31T06:03:32.514Z,97.40
2018-12-31T06:06:05.626Z,97.40
2018-12-31T06:08:36.910Z,97.00
2018-12-31T06:11:09.117Z,96.90
2018-12-31T06:13:40.312Z,96.60
2018-12-31T06:16:11.366Z,96.70
2018-12-31T06:18:43.444Z,96.40
2018-12-31T06:21:14.938Z,95.90
2018-12-31T06:23:46.616Z,96.10
2018-12-31T06:26:17.516Z,96.50
2018-12-31T06:28:48.765Z,96.20
2018-12-31T06:31:22.143Z,96.50
2018-12-31T06:33:54.375Z,96.80
2018-12-31T06:36:24.842Z,96.80
2018-12-31T06:38:58.556Z,96.90
2018-12-31T06:41:33.196Z,96.80
2018-12-31T06:44:04.747Z,96.40
2018-12-31T06:46:35.948Z,96.60
2018-12-31T06:49:06.510Z,96.00
2018-12-31T06:51:37.437Z,96.20
2018-12-31T06:54:11.134Z,96.40
2018-12-31T06:56:42.246Z,96.20
2018-12-31T06:59:12.584Z,96.10
2018-12-31T07:01:45.763Z,96.10
2018-12-31T07:04:17.943Z,96.00
2018-12-31T07:06:48.950Z,96.10
2018-12-31T07:09:21.555Z,96.00
2018-12-31T07:11:52.510Z,95.80
2018-12-31T07:14:23.737Z,95.50
2018-12-31T07:16:55.207Z,95.50
2018-12-31T07:19:26.814Z,96.10
2018-12-31T07:21:58.037Z,96.20
2018-12-31T07:24:31.109Z,96.60
2018-12-31T07:27:04.351Z,96.70
2018-12-31T07:29:35.434Z,96.70
2018-12-31T07:32:06.891Z,96.70
2018-12-31T07:34:37.271Z,96.50
2018-12-31T07:37:08.482Z,96.40
2018-12-31T07:39:41.681Z,96.50
2018-12-31T07:42:12.200Z,96.20
2018-12-31T07:44:43.689Z,96.20
2018-12-31T07:47:16.271Z,96.20
2018-12-31T07:49:48.411Z,96.00
2018-12-31T07:52:19.886Z,95.70
2018-12-31T07:54:51.394Z,95.10
2018-12-31T07:57:23.439Z,95.10
2018-12-31T07:59:55.127Z,94.80
2018-12-31T08:02:30.103Z,95.20
2018-12-31T08:05:00.579Z,95.70
2018-12-31T08:07:33.112Z,95.40
2018-12-31T08:10:04.770Z,95.70
2018-12-31T08:12:35.454Z,95.30
2018-12-31T08:15:06.961Z,95.40
2018-12-31T08:17:48.048Z,95.50
2018-12-31T08:20:22.584Z,95.40
2018-12-31T08:22:53.909Z,95.20
2018-12-31T08:25:29.577Z,95.20
2018-12-31T08:28:05.442Z,95.50
2018-12-31T08:30:36.147Z,95.50
2018-12-31T08:33:10.119Z,95.70
2018-12-31T08:35:41.634Z,95.70
2018-12-31T08:38:14.107Z,95.90
2018-12-31T08:40:44.486Z,95.50
2018-12-31T08:43:15.835Z,94.70
2018-12-31T08:45:50.155Z,95.40
2018-12-31T08:48:21.913Z,94.80
2018-12-31T08:50:57.631Z,95.00
2018-12-31T08:53:28.387Z,95.20
2018-12-31T08:56:00.027Z,95.40
2018-12-31T08:58:31.210Z,94.80
2018-12-31T09:01:02.346Z,94.50
2018-12-31T09:03:32.729Z,94.30
2018-12-31T09:06:07.649Z,94.70
2018-12-31T09:08:42.531Z,94.40
2018-12-31T09:11:13.655Z,94.30
2018-12-31T09:13:44.242Z,94.50
2018-12-31T09:16:16.877Z,94.60
2018-12-31T09:18:50.056Z,94.70
2018-12-31T09:21:21.239Z,94.10
2018-12-31T09:23:53.792Z,94.10
2018-12-31T09:26:27.087Z,94.20
2018-12-31T09:28:58.372Z,94.40
2018-12-31T09:31:32.449Z,94.00
2018-12-31T09:34:03.373Z,93.90
2018-12-31T09:36:34.495Z,93.50
2018-12-31T09:39:08.432Z,93.80
2018-12-31T09:41:39.684Z,93.80
2018-12-31T09:44:11.001Z,93.90
2018-12-31T09:46:43.328Z,93.60
2018-12-31T09:49:14.997Z,93.30
2018-12-31T09:51:50.284Z,93.40
2018-12-31T09:54:20.896Z,93.40
2018-12-31T09:56:55.032Z,93.80
2018-12-31T09:59:25.825Z,93.50
2018-12-31T10:01:57.975Z,93.50
2018-12-31T10:04:29.552Z,93.70
2018-12-31T10:07:00.342Z,94.10
2018-12-31T10:09:32.221Z,93.90
2018-12-31T10:12:06.410Z,93.40
2018-12-31T10:14:38.421Z,93.70
2018-12-31T10:17:09.636Z,93.60
2018-12-31T10:19:40.823Z,93.60
2018-12-31T10:22:15.209Z,93.40
2018-12-31T10:24:48.028Z,93.80
2018-12-31T10:27:19.168Z,93.90
2018-12-31T10:29:50.287Z,94.00
2018-12-31T10:32:22.359Z,93.20
2018-12-31T10:34:54.371Z,93.00
2018-12-31T10:37:28.474Z,93.10
2018-12-31T10:39:59.269Z,92.30
2018-12-31T10:42:30.778Z,92.20
2018-12-31T10:45:03.525Z,92.10
2018-12-31T10:47:37.472Z,91.90
2018-12-31T10:50:11.163Z,92.10
2018-12-31T10:52:42.799Z,92.00
2018-12-31T10:55:13.589Z,92.00
2018-12-31T10:57:44.764Z,92.20
2018-12-31T11:00:18.169Z,91.80
2018-12-31T11:02:49.466Z,91.60
2018-12-31T11:05:23.004Z,91.30
2018-12-31T11:07:55.673Z,91.60
2018-12-31T11:10:27.933Z,91.60
2018-12-31T11:12:59.416Z,91.00
2018-12-31T11:15:31.162Z,91.00
2018-12-31T11:18:03.876Z,90.70
2018-12-31T11:20:34.538Z,90.90
2018-12-31T11:23:06.082Z,90.70
2018-12-31T11:25:43.317Z,91.10
2018-12-31T11:28:15.193Z,91.30
2018-12-31T11:30:49.685Z,91.20
2018-12-31T11:33:21.552Z,91.30
2018-12-31T11:35:53.037Z,91.40
2018-12-31T11:38:24.526Z,91.50
2018-12-31T11:40:58.334Z,90.80
2018-12-31T11:43:29.532Z,91.50
2018-12-31T11:46:00.742Z,91.40
2018-12-31T11:48:31.848Z,91.50
2018-12-31T11:51:03.385Z,91.60
2018-12-31T11:53:37.544Z,92.00
2018-12-31T11:56:08.726Z,91.50
2018-12-31T11:58:41.163Z,91.70
2018-12-31T12:01:13.628Z,92.10
2018-12-31T12:03:46.532Z,92.10
2018-12-31T12:06:17.786Z,91.90
2018-12-31T12:08:49.016Z,92.30
2018-12-31T12:11:22.079Z,92.10
2018-12-31T12:13:54.354Z,92.00
2018-12-31T12:16:26.689Z,91.80
2018-12-31T12:18:59.650Z,91.80
2018-12-31T12:21:30.802Z,91.50
2018-12-31T12:24:04.551Z,91.20
2018-12-31T12:26:36.694Z,91.50
2018-12-31T12:29:07.794Z,91.80
2018-12-31T12:31:38.582Z,91.20
2018-12-31T12:34:10.233Z,91.60
2018-12-31T12:36:42.204Z,91.60
2018-12-31T12:39:13.789Z,91.60
2018-12-31T12:41:47.015Z,91.80
2018-12-31T12:44:19.068Z,92.10
2018-12-31T12:46:50.787Z,92.30
2018-12-31T12:49:23.874Z,92.40
2018-12-31T12:51:55.740Z,92.70
2018-12-31T12:54:27.060Z,92.60
2018-12-31T12:56:58.464Z,92.50
2018-12-31T12:59:29.835Z,92.70
2018-12-31T13:02:00.846Z,92.30
2018-12-31T13:04:33.411Z,91.90
2018-12-31T13:07:04.592Z,91.50
2018-12-31T13:09:35.388Z,91.90
2018-12-31T13:12:06.252Z,91.70
2018-12-31T13:14:38.664Z,91.90
2018-12-31T13:17:11.497Z,92.10
2018-12-31T13:19:42.632Z,92.20
2018-12-31T13:22:13.654Z,92.10
2018-12-31T13:24:44.169Z,92.40
2018-12-31T13:27:15.567Z,92.60
2018-12-31T13:29:49.014Z,92.70
2018-12-31T13:32:20.620Z,92.80
2018-12-31T13:34:53.420Z,93.00
2018-12-31T13:37:27.900Z,92.80
2018-12-31T13:39:59.249Z,92.80
2018-12-31T13:42:30.320Z,92.80
2018-12-31T13:45:02.404Z,93.10
2018-12-31T13:47:33.699Z,93.30
2018-12-31T13:50:05.033Z,93.60
2018-12-31T13:52:37.290Z,93.40
2018-12-31T13:55:10.252Z,93.40
2018-12-31T13:57:41.770Z,93.00
2018-12-31T14:00:13.666Z,92.90
2018-12-31T14:02:46.014Z,93.10
2018-12-31T14:05:17.254Z,92.90
2018-12-31T14:07:48.465Z,93.00
2018-12-31T14:10:19.417Z,93.00
2018-12-31T14:12:50.410Z,93.20
2018-12-31T14:15:23.026Z,93.00
2018-12-31T14:17:55.446Z,92.90
2018-12-31T14:20:26.392Z,92.70
2018-12-31T14:22:59.022Z,92.90
2018-12-31T14:25:30.469Z,93.20
2018-12-31T14:28:02.989Z,92.50
2018-12-31T14:30:35.279Z,93.00
2018-12-31T14:33:08.163Z,92.90
2018-12-31T14:35:45.696Z,93.10
2018-12-31T14:38:13.641Z,93.20
2018-12-31T14:40:45.262Z,93.40
2018-12-31T14:43:17.306Z,92.80
2018-12-31T14:45:49.199Z,92.30
2018-12-31T14:48:21.510Z,92.30
2018-12-31T14:50:55.687Z,91.90
2018-12-31T14:53:30.936Z,91.70
2018-12-31T14:56:02.418Z,91.80
2018-12-31T14:58:35.411Z,92.00
2018-12-31T15:01:10.253Z,91.80
2018-12-31T15:03:42.737Z,91.50
2018-12-31T15:06:14.946Z,91.60
2018-12-31T15:08:50.314Z,91.90
2018-12-31T15:11:27.711Z,91.40
2018-12-31T15:13:59.943Z,91.50
2018-12-31T15:16:33.742Z,90.90
2018-12-31T15:19:06.985Z,91.00
2018-12-31T15:21:38.089Z,90.70
2018-12-31T15:24:12.225Z,90.60
2018-12-31T15:26:45.802Z,90.50
2018-12-31T15:29:18.138Z,90.30
2018-12-31T15:31:50.751Z,89.70
2018-12-31T15:34:23.808Z,90.10
2018-12-31T15:36:59.254Z,89.10
2018-12-31T15:39:31.868Z,90.00
2018-12-31T15:42:09.045Z,90.10
2018-12-31T15:44:42.065Z,90.50
2018-12-31T15:47:20.507Z,90.60
2018-12-31T15:49:55.540Z,90.60
2018-12-31T15:52:28.774Z,91.00
2018-12-31T15:55:01.501Z,91.10
2018-12-31T15:57:32.947Z,91.10
2018-12-31T16:00:05.678Z,91.10
2018-12-31T16:02:37.919Z,91.50
2018-12-31T16:05:10.931Z,91.50
2018-12-31T16:07:45.927Z,91.90
2018-12-31T16:10:16.115Z,92.00
2018-12-31T16:12:48.492Z,92.10
2018-12-31T16:15:21.624Z,92.40
2018-12-31T16:17:52.646Z,92.50
2018-12-31T16:20:25.448Z,92.70
2018-12-31T16:22:58.793Z,93.20
2018-12-31T16:25:30.674Z,93.10
2018-12-31T16:28:02.823Z,93.30
2018-12-31T16:30:34.681Z,93.00
2018-12-31T16:33:07.108Z,93.00
2018-12-31T16:35:38.792Z,92.90
2018-12-31T16:38:10.104Z,93.50
2018-12-31T16:40:41.741Z,93.30
2018-12-31T16:43:13.556Z,93.30
2018-12-31T16:45:45.249Z,93.60
2018-12-31T16:48:17.210Z,93.80
2018-12-31T16:50:48.898Z,93.60
2018-12-31T16:53:19.516Z,93.30
2018-12-31T16:55:51.519Z,93.70
2018-12-31T16:58:22.289Z,93.80
2018-12-31T17:00:53.096Z,93.90
2018-12-31T17:03:24.018Z,94.00
2018-12-31T17:05:55.007Z,93.90
2018-12-31T17:08:26.203Z,94.10
2018-12-31T17:10:56.792Z,94.70
2018-12-31T17:13:27.654Z,94.70
2018-12-31T17:15:58.468Z,95.00
2018-12-31T17:18:29.867Z,95.10
2018-12-31T17:21:00.595Z,95.30
2018-12-31T17:23:32.449Z,95.40
2018-12-31T17:26:03.065Z,95.70
2018-12-31T17:28:35.819Z,95.70
2018-12-31T17:31:06.590Z,96.00
2018-12-31T17:33:37.620Z,96.20
2018-12-31T17:36:08.267Z,96.10
2018-12-31T17:38:40.198Z,96.40
2018-12-31T17:41:11.166Z,96.40
2018-12-31T17:43:42.476Z,96.50
2018-12-31T17:46:13.052Z,96.40
2018-12-31T17:48:43.848Z,96.50
2018-12-31T17:51:15.379Z,96.30
2018-12-31T17:53:46.683Z,96.40
2018-12-31T17:56:18.190Z,96.30
2018-12-31T17:58:48.957Z,96.40
2018-12-31T18:01:19.973Z,96.20
2018-12-31T18:03:50.575Z,96.20
2018-12-31T18:06:21.266Z,96.50
2018-12-31T18:08:52.130Z,96.40
2018-12-31T18:11:22.822Z,96.30
2018-12-31T18:13:53.373Z,96.10
2018-12-31T18:16:24.296Z,96.20
2018-12-31T18:18:55.152Z,96.10
2018-12-31T18:21:26.965Z,96.20
2018-12-31T18:23:57.683Z,96.30
2018-12-31T18:26:29.959Z,96.40
2018-12-31T18:29:01.442Z,96.20
2018-12-31T18:31:33.538Z,96.50
2018-12-31T18:34:05.185Z,96.20
2018-12-31T18:36:36.655Z,96.10
2018-12-31T18:39:11.352Z,95.80
2018-12-31T18:41:42.217Z,95.40
2018-12-31T18:44:13.961Z,95.50
2018-12-31T18:46:45.114Z,95.60
2018-12-31T18:49:16.484Z,95.50
2018-12-31T18:51:52.085Z,95.80
2018-12-31T18:54:25.750Z,95.80
2018-12-31T18:56:57.338Z,95.70
2018-12-31T18:59:29.119Z,95.60
2018-12-31T19:02:00.054Z,95.70
2018-12-31T19:04:30.977Z,95.60
2018-12-31T19:07:01.876Z,95.70
2018-12-31T19:09:33.011Z,95.60
2018-12-31T19:12:03.631Z,95.50
2018-12-31T19:14:34.580Z,95.90
2018-12-31T19:17:05.665Z,96.00
2018-12-31T19:19:36.643Z,96.10
2018-12-31T19:22:07.282Z,95.90
2018-12-31T19:24:38.608Z,96.10
2018-12-31T19:27:10.261Z,95.90
2018-12-31T19:29:41.598Z,96.00
2018-12-31T19:32:13.198Z,96.40
2018-12-31T19:34:46.064Z,96.20
2018-12-31T19:37:17.523Z,96.40
2018-12-31T19:39:49.141Z,96.30
2018-12-31T19:42:20.465Z,96.50
2018-12-31T19:44:51.438Z,96.40
2018-12-31T19:47:23.440Z,96.40
2018-12-31T19:49:55.330Z,96.60
2018-12-31T19:52:28.520Z,96.50
2018-12-31T19:54:59.613Z,96.70
2018-12-31T19:57:30.521Z,96.60
2018-12-31T20:00:02.879Z,96.50
2018-12-31T20:02:34.393Z,96.60
2018-12-31T20:05:05.624Z,96.50
2018-12-31T20:07:37.605Z,96.60
2018-12-31T20:10:08.382Z,96.60
2018-12-31T20:12:41.414Z,96.60
2018-12-31T20:15:12.027Z,96.60
2018-12-31T20:17:44.058Z,96.50
2018-12-31T20:20:14.807Z,96.50
2018-12-31T20:22:46.948Z,96.80
2018-12-31T20:25:17.814Z,96.70
2018-12-31T20:27:51.438Z,96.70
2018-12-31T20:30:23.192Z,96.60
2018-12-31T20:32:55.319Z,96.50
2018-12-31T20:35:26.215Z,96.60
2018-12-31T20:37:58.615Z,96.40
2018-12-31T20:40:29.581Z,96.50
2018-12-31T20:43:05.847Z,96.60
2018-12-31T20:45:37.103Z,96.30
2018-12-31T20:48:18.698Z,96.40
2018-12-31T20:50:50.073Z,96.30
2018-12-31T20:53:21.264Z,95.90
2018-12-31T20:55:53.402Z,95.90
2018-12-31T20:58:27.114Z,96.00
2018-12-31T21:00:59.375Z,95.90
2018-12-31T21:03:30.620Z,95.90
2018-12-31T21:06:02.633Z,96.00
2018-12-31T21:08:35.770Z,95.90
2018-12-31T21:11:06.712Z,95.60
2018-12-31T21:13:37.974Z,95.70
2018-12-31T21:16:10.229Z,95.70
2018-12-31T21:18:44.789Z,95.90
2018-12-31T21:21:16.703Z,95.80
2018-12-31T21:23:48.932Z,95.70
2018-12-31T21:26:20.061Z,95.70
2018-12-31T21:28:51.580Z,95.70
2018-12-31T21:31:22.321Z,95.70
2018-12-31T21:33:52.762Z,95.90
2018-12-31T21:36:24.275Z,96.00
2018-12-31T21:38:55.747Z,95.80
2018-12-31T21:41:27.129Z,95.60
2018-12-31T21:43:58.354Z,95.70
2018-12-31T21:46:31.296Z,95.70
2018-12-31T21:49:02.962Z,95.40
2018-12-31T21:51:33.601Z,95.50
2018-12-31T21:54:07.224Z,95.50
2018-12-31T21:56:41.991Z,95.20
2018-12-31T21:59:13.478Z,95.20
2018-12-31T22:01:44.482Z,95.20
2018-12-31T22:04:16.243Z,95.00
2018-12-31T22:06:47.215Z,95.30
2018-12-31T22:09:18.666Z,95.40
2018-12-31T22:11:51.078Z,95.00
2018-12-31T22:14:25.644Z,95.00
2018-12-31T22:16:57.207Z,95.20
2018-12-31T22:19:29.266Z,95.10
2018-12-31T22:22:01.536Z,95.20
2018-12-31T22:24:33.009Z,95.20
2018-12-31T22:27:04.641Z,95.30
2018-12-31T22:29:35.716Z,95.30
2018-12-31T22:32:06.988Z,95.40
2018-12-31T22:34:39.441Z,95.80
2018-12-31T22:37:10.494Z,95.80
2018-12-31T22:39:43.052Z,96.00
2018-12-31T22:42:14.140Z,96.20
2018-12-31T22:44:45.166Z,96.10
2018-12-31T22:47:15.874Z,96.30
2018-12-31T22:49:47.569Z,96.30
2018-12-31T22:52:18.756Z,96.50
2018-12-31T22:54:50.110Z,96.60
2018-12-31T22:57:21.533Z,96.80
2018-12-31T22:59:52.549Z,96.80
2018-12-31T23:02:22.947Z,97.00
2018-12-31T23:04:53.763Z,97.10
2018-12-31T23:07:24.239Z,97.20
2018-12-31T23:09:55.198Z,97.70
2018-12-31T23:12:27.652Z,97.40
2018-12-31T23:14:58.651Z,97.50
2018-12-31T23:17:29.893Z,97.70
2018-12-31T23:20:07.639Z,97.70
2018-12-31T23:22:40.398Z,98.00
2018-12-31T23:25:11.665Z,98.10
2018-12-31T23:27:48.696Z,98.30
2018-12-31T23:30:28.759Z,98.30
2018-12-31T23:33:02.244Z,98.40
2018-12-31T23:35:33.917Z,98.50
2018-12-31T23:38:05.193Z,98.40
2018-12-31T23:40:36.346Z,98.40
2018-12-31T23:43:08.475Z,98.30
2018-12-31T23:45:41.460Z,98.40
2018-12-31T23:48:12.522Z,98.30
2018-12-31T23:50:43.752Z,98.20
2018-12-31T23:53:19.337Z,98.30
2018-12-31T23:55:51.228Z,98.30
2018-12-31T23:58:28.217Z,98.30
